Terminal Aerodrome Forecast
Issued by NWS St Louis, MO

Home | Current Version | Previous Version | Text Only | Print | Product List | Glossary On
Versions: 1 2 3 4 5 6 7 8 9 10 11 12 13
344
FTUS43 KLSX 102337
TAFCOU
TAF
KCOU 102337Z 1100/1124 14008KT P6SM OVC060
     FM111400 17010KT P6SM OVC030
     FM111500 17010KT P6SM VCSH OVC025
     FM111800 18010G16KT P6SM OVC015
     FM112200 22007KT P6SM OVC008=

USA.gov is the U.S. government's official web portal to all federal, state and local government web resources and services.